createdAt,value
2019-03-01T00:01:56.071Z,15.15
2019-03-01T00:04:54.149Z,14.58
2019-03-01T00:08:15.305Z,12.37
2019-03-01T00:11:29.439Z,12.65
2019-03-01T00:14:56.720Z,11.88
2019-03-01T00:17:58.559Z,12.20
2019-03-01T00:21:15.271Z,11.50
2019-03-01T00:24:12.836Z,10.15
2019-03-01T00:27:10.496Z,10.40
2019-03-01T00:29:58.208Z,10.80
2019-03-01T00:33:16.412Z,9.75
2019-03-01T00:36:46.602Z,9.33
2019-03-01T00:39:52.139Z,8.93
2019-03-01T00:42:52.008Z,8.30
2019-03-01T00:45:23.537Z,8.95
2019-03-01T00:47:55.403Z,8.90
2019-03-01T00:50:26.710Z,9.13
2019-03-01T00:52:58.037Z,10.43
2019-03-01T00:55:29.736Z,9.33
2019-03-01T00:58:01.027Z,9.93
2019-03-01T01:00:36.898Z,10.08
2019-03-01T01:03:08.352Z,10.35
2019-03-01T01:05:40.053Z,10.43
2019-03-01T01:08:11.466Z,8.08
2019-03-01T01:10:43.293Z,8.20
2019-03-01T01:13:14.900Z,7.20
2019-03-01T01:15:46.626Z,7.50
2019-03-01T01:18:18.329Z,7.37
2019-03-01T01:20:50.078Z,7.33
2019-03-01T01:23:21.449Z,6.65
2019-03-01T01:25:52.766Z,6.95
2019-03-01T01:28:24.295Z,7.00
2019-03-01T01:30:55.798Z,6.45
2019-03-01T01:33:27.361Z,6.37
2019-03-01T01:35:58.844Z,7.12
2019-03-01T01:38:30.328Z,7.05
2019-03-01T01:41:01.967Z,6.22
2019-03-01T01:43:33.527Z,6.83
2019-03-01T01:46:05.126Z,6.58
2019-03-01T01:48:36.873Z,6.85
2019-03-01T01:51:08.513Z,6.90
2019-03-01T01:53:40.040Z,7.00
2019-03-01T01:56:12.106Z,7.03
2019-03-01T01:58:43.770Z,7.45
2019-03-01T02:01:15.561Z,6.58
2019-03-01T02:03:47.299Z,6.85
2019-03-01T02:06:18.973Z,7.45
2019-03-01T02:08:50.354Z,6.78
2019-03-01T02:11:21.946Z,7.33
2019-03-01T02:13:53.725Z,7.35
2019-03-01T02:16:25.444Z,6.95
2019-03-01T02:18:57.974Z,7.30
2019-03-01T02:21:29.807Z,7.87
2019-03-01T02:24:01.424Z,7.35
2019-03-01T02:26:32.884Z,7.62
2019-03-01T02:29:05.701Z,9.23
2019-03-01T02:31:37.834Z,8.68
2019-03-01T02:34:09.205Z,8.15
2019-03-01T02:36:40.844Z,7.37
2019-03-01T02:39:12.482Z,7.70
2019-03-01T02:41:43.942Z,7.53
2019-03-01T02:44:15.244Z,7.00
2019-03-01T02:46:47.055Z,7.53
2019-03-01T02:49:18.918Z,7.30
2019-03-01T02:51:50.701Z,7.92
2019-03-01T02:54:22.393Z,7.95
2019-03-01T02:56:53.807Z,9.10
2019-03-01T02:59:25.154Z,9.35
2019-03-01T03:01:56.900Z,10.28
2019-03-01T03:04:29.264Z,9.15
2019-03-01T03:07:11.299Z,9.65
2019-03-01T03:09:42.941Z,10.18
2019-03-01T03:12:14.374Z,11.48
2019-03-01T03:14:46.021Z,10.85
2019-03-01T03:17:18.723Z,11.83
2019-03-01T03:19:50.259Z,11.05
2019-03-01T03:22:21.791Z,10.48
2019-03-01T03:24:53.166Z,9.40
2019-03-01T03:27:24.719Z,9.25
2019-03-01T03:29:56.491Z,8.73
2019-03-01T03:32:27.920Z,9.23
2019-03-01T03:34:59.566Z,8.33
2019-03-01T03:37:31.356Z,8.90
2019-03-01T03:40:03.101Z,7.58
2019-03-01T03:42:34.864Z,8.50
2019-03-01T03:45:07.126Z,9.75
2019-03-01T03:47:38.633Z,9.63
2019-03-01T03:50:11.463Z,8.45
2019-03-01T03:52:43.381Z,8.70
2019-03-01T03:55:15.595Z,9.10
2019-03-01T03:57:48.106Z,7.85
2019-03-01T04:00:20.438Z,8.03
2019-03-01T04:02:52.187Z,8.68
2019-03-01T04:05:23.943Z,8.28
2019-03-01T04:07:55.232Z,9.40
2019-03-01T04:10:26.880Z,10.28
2019-03-01T04:12:58.321Z,10.35
2019-03-01T04:15:30.240Z,10.05
2019-03-01T04:18:01.927Z,9.13
2019-03-01T04:20:33.650Z,8.83
2019-03-01T04:23:05.134Z,8.48
2019-03-01T04:25:36.555Z,8.85
2019-03-01T04:28:08.405Z,8.33
2019-03-01T04:30:39.818Z,8.40
2019-03-01T04:33:11.552Z,9.00
2019-03-01T04:35:43.176Z,9.85
2019-03-01T04:38:14.461Z,9.43
2019-03-01T04:40:46.100Z,9.38
2019-03-01T04:43:17.803Z,8.85
2019-03-01T04:45:49.551Z,8.83
2019-03-01T04:48:20.877Z,7.97
2019-03-01T04:50:52.539Z,8.20
2019-03-01T04:53:23.917Z,8.48
2019-03-01T04:55:55.344Z,10.03
2019-03-01T04:58:26.754Z,8.88
2019-03-01T05:00:58.549Z,8.20
2019-03-01T05:03:29.889Z,8.33
2019-03-01T05:06:02.364Z,7.47
2019-03-01T05:08:34.005Z,8.23
2019-03-01T05:11:05.797Z,7.70
2019-03-01T05:13:37.292Z,8.35
2019-03-01T05:16:08.792Z,9.28
2019-03-01T05:18:40.308Z,8.45
2019-03-01T05:21:11.970Z,8.38
2019-03-01T05:23:43.406Z,8.90
2019-03-01T05:26:15.239Z,8.33
2019-03-01T05:28:46.628Z,8.35
2019-03-01T05:31:18.130Z,9.33
2019-03-01T05:33:49.507Z,8.65
2019-03-01T05:36:21.039Z,10.75
2019-03-01T05:38:52.587Z,12.88
2019-03-01T05:41:24.210Z,13.70
2019-03-01T05:43:55.522Z,13.68
2019-03-01T05:46:26.795Z,14.03
2019-03-01T05:48:58.462Z,12.70
2019-03-01T05:51:30.118Z,11.57
2019-03-01T05:54:01.769Z,11.60
2019-03-01T05:56:33.415Z,10.00
2019-03-01T05:59:20.290Z,10.13
2019-03-01T06:02:22.003Z,9.83
2019-03-01T06:04:56.876Z,13.85
2019-03-01T06:08:08.665Z,9.58
2019-03-01T06:11:10.590Z,9.95
2019-03-01T06:14:12.666Z,13.33
2019-03-01T06:17:19.232Z,10.63
2019-03-01T06:20:43.199Z,9.23
2019-03-01T06:23:32.475Z,9.70
2019-03-01T06:26:36.499Z,9.47
2019-03-01T06:29:50.969Z,10.47
2019-03-01T06:32:56.824Z,9.87
2019-03-01T06:35:57.145Z,10.03
2019-03-01T06:39:37.717Z,9.73
2019-03-01T06:42:54.316Z,9.83
2019-03-01T06:46:02.357Z,10.97
2019-03-01T06:48:45.565Z,13.53
2019-03-01T06:51:29.410Z,11.83
2019-03-01T06:54:00.962Z,9.53
2019-03-01T06:56:32.288Z,9.40
2019-03-01T06:59:05.596Z,10.10
2019-03-01T07:01:42.816Z,9.83
2019-03-01T07:04:22.900Z,11.23
2019-03-01T07:06:54.319Z,10.67
2019-03-01T07:09:25.718Z,10.10
2019-03-01T07:11:56.798Z,12.13
2019-03-01T07:14:28.033Z,11.60
2019-03-01T07:16:59.079Z,13.83
2019-03-01T07:19:32.435Z,13.10
2019-03-01T07:22:03.563Z,12.43
2019-03-01T07:24:34.824Z,12.40
2019-03-01T07:27:05.950Z,11.37
2019-03-01T07:29:37.481Z,12.30
2019-03-01T07:32:08.665Z,11.87
2019-03-01T07:34:39.818Z,11.80
2019-03-01T07:37:10.978Z,11.70
2019-03-01T07:39:42.568Z,11.10
2019-03-01T07:42:14.034Z,14.37
2019-03-01T07:44:45.457Z,14.13
2019-03-01T07:47:16.601Z,11.97
2019-03-01T07:49:47.948Z,11.43
2019-03-01T07:52:19.286Z,11.67
2019-03-01T07:54:52.785Z,11.67
2019-03-01T07:57:23.975Z,11.87
2019-03-01T07:59:55.129Z,12.60
2019-03-01T08:02:26.454Z,12.23
2019-03-01T08:05:00.075Z,12.07
2019-03-01T08:07:30.906Z,10.77
2019-03-01T08:10:02.245Z,11.30
2019-03-01T08:12:34.218Z,11.47
2019-03-01T08:15:08.198Z,11.63
2019-03-01T08:17:39.235Z,12.20
2019-03-01T08:20:13.025Z,12.53
2019-03-01T08:22:49.101Z,11.30
2019-03-01T08:25:23.490Z,11.83
2019-03-01T08:27:51.807Z,11.50
2019-03-01T08:30:23.173Z,12.70
2019-03-01T08:32:54.705Z,13.00
2019-03-01T08:35:28.331Z,12.30
2019-03-01T08:37:59.597Z,13.13
2019-03-01T08:40:31.045Z,13.03
2019-03-01T08:43:02.546Z,13.60
2019-03-01T08:45:33.922Z,13.70
2019-03-01T08:48:05.598Z,13.33
2019-03-01T08:50:36.856Z,13.30
2019-03-01T08:53:11.474Z,13.10
2019-03-01T08:55:41.471Z,13.63
2019-03-01T08:58:12.941Z,13.03
2019-03-01T09:00:44.309Z,14.30
2019-03-01T09:03:24.178Z,14.30
2019-03-01T09:05:57.006Z,14.47
2019-03-01T09:08:28.068Z,14.17
2019-03-01T09:10:59.569Z,14.53
2019-03-01T09:13:30.766Z,14.20
2019-03-01T09:16:02.375Z,14.50
2019-03-01T09:18:33.986Z,13.93
2019-03-01T09:21:06.249Z,14.20
2019-03-01T09:23:39.594Z,15.40
2019-03-01T09:26:10.868Z,16.00
2019-03-01T09:28:42.151Z,14.90
2019-03-01T09:31:13.691Z,14.87
2019-03-01T09:33:45.354Z,15.63
2019-03-01T09:36:29.896Z,14.93
2019-03-01T09:39:01.256Z,15.60
2019-03-01T09:41:36.593Z,17.27
2019-03-01T09:44:07.304Z,14.97
2019-03-01T09:46:38.489Z,15.40
2019-03-01T09:49:09.876Z,15.50
2019-03-01T09:51:43.700Z,14.93
2019-03-01T09:54:15.221Z,14.33
2019-03-01T09:56:46.664Z,14.03
2019-03-01T09:59:18.356Z,15.87
2019-03-01T10:01:49.578Z,25.53
2019-03-01T10:04:20.674Z,15.60
2019-03-01T10:06:52.121Z,15.33
2019-03-01T10:09:23.565Z,15.37
2019-03-01T10:11:55.032Z,15.80
2019-03-01T10:14:26.531Z,14.60
2019-03-01T10:16:58.470Z,16.30
2019-03-01T10:19:29.708Z,15.07
2019-03-01T10:22:00.651Z,15.07
2019-03-01T10:24:31.761Z,15.10
2019-03-01T10:27:03.115Z,14.83
2019-03-01T10:29:34.177Z,16.30
2019-03-01T10:32:05.372Z,15.33
2019-03-01T10:34:36.754Z,15.40
2019-03-01T10:37:07.965Z,15.27
2019-03-01T10:39:39.140Z,16.50
2019-03-01T10:42:10.113Z,15.80
2019-03-01T10:44:41.228Z,14.80
2019-03-01T10:47:12.205Z,15.77
2019-03-01T10:49:43.480Z,16.33
2019-03-01T10:52:14.633Z,16.67
2019-03-01T10:54:46.087Z,16.63
2019-03-01T10:57:17.237Z,17.10
2019-03-01T10:59:48.335Z,17.53
2019-03-01T11:02:19.689Z,15.53
2019-03-01T11:04:51.139Z,17.00
2019-03-01T11:07:22.593Z,16.30
2019-03-01T11:09:53.898Z,16.53
2019-03-01T11:12:25.311Z,15.63
2019-03-01T11:14:56.523Z,17.23
2019-03-01T11:17:27.983Z,16.10
2019-03-01T11:19:59.089Z,16.37
2019-03-01T11:22:30.402Z,16.90
2019-03-01T11:25:01.829Z,15.93
2019-03-01T11:27:33.147Z,16.37
2019-03-01T11:30:04.686Z,18.07
2019-03-01T11:32:35.805Z,15.67
2019-03-01T11:35:07.509Z,16.03
2019-03-01T11:37:38.850Z,17.30
2019-03-01T11:40:12.434Z,16.87
2019-03-01T11:42:44.091Z,17.23
2019-03-01T11:45:15.802Z,16.60
2019-03-01T11:47:47.174Z,17.30
2019-03-01T11:50:20.383Z,17.73
2019-03-01T11:52:51.655Z,16.90
2019-03-01T11:55:23.337Z,16.23
2019-03-01T11:57:54.869Z,16.23
2019-03-01T12:00:26.241Z,16.53
2019-03-01T12:02:57.463Z,16.30
2019-03-01T12:05:28.731Z,16.23
2019-03-01T12:07:59.997Z,16.33
2019-03-01T12:10:31.665Z,15.60
2019-03-01T12:13:02.771Z,16.60
2019-03-01T12:15:34.145Z,16.00
2019-03-01T12:18:05.379Z,16.83
2019-03-01T12:20:36.674Z,17.00
2019-03-01T12:23:07.932Z,16.40
2019-03-01T12:25:39.106Z,16.20
2019-03-01T12:28:10.541Z,15.47
2019-03-01T12:30:41.714Z,16.20
2019-03-01T12:33:13.025Z,15.17
2019-03-01T12:35:45.688Z,14.87
2019-03-01T12:38:16.832Z,16.43
2019-03-01T12:40:47.973Z,16.20
2019-03-01T12:43:19.242Z,16.07
2019-03-01T12:45:50.492Z,16.30
2019-03-01T12:48:21.776Z,15.80
2019-03-01T12:50:53.008Z,15.97
2019-03-01T12:53:24.249Z,16.83
2019-03-01T12:55:55.518Z,16.40
2019-03-01T12:58:26.534Z,16.27
2019-03-01T13:00:57.684Z,16.07
2019-03-01T13:03:30.098Z,15.40
2019-03-01T13:06:03.857Z,16.60
2019-03-01T13:08:34.214Z,15.47
2019-03-01T13:11:05.129Z,14.70
2019-03-01T13:13:38.433Z,14.57
2019-03-01T13:16:08.669Z,13.70
2019-03-01T13:18:39.996Z,14.30
2019-03-01T13:21:12.957Z,13.10
2019-03-01T13:23:45.429Z,14.50
2019-03-01T13:26:16.729Z,13.43
2019-03-01T13:28:47.878Z,12.73
2019-03-01T13:31:18.913Z,14.30
2019-03-01T13:33:49.869Z,14.07
2019-03-01T13:36:21.102Z,14.50
2019-03-01T13:38:52.280Z,15.97
2019-03-01T13:41:25.275Z,14.23
2019-03-01T13:43:56.527Z,13.53
2019-03-01T13:46:30.023Z,13.20
2019-03-01T13:49:00.856Z,13.07
2019-03-01T13:51:32.247Z,12.77
2019-03-01T13:54:05.800Z,12.87
2019-03-01T13:56:36.833Z,13.97
2019-03-01T13:59:07.887Z,12.90
2019-03-01T14:01:38.973Z,12.90
2019-03-01T14:04:10.979Z,13.13
2019-03-01T14:06:42.069Z,11.97
2019-03-01T14:09:15.582Z,11.40
2019-03-01T14:11:46.778Z,11.47
2019-03-01T14:14:18.009Z,12.17
2019-03-01T14:16:49.294Z,12.30
2019-03-01T14:19:20.711Z,11.87
2019-03-01T14:21:52.049Z,11.87
2019-03-01T14:24:25.962Z,11.80
2019-03-01T14:26:58.544Z,10.83
2019-03-01T14:29:29.463Z,10.53
2019-03-01T14:32:00.821Z,11.77
2019-03-01T14:34:31.898Z,10.93
2019-03-01T14:37:02.911Z,11.97
2019-03-01T14:39:34.435Z,12.23
2019-03-01T14:42:07.217Z,12.73
2019-03-01T14:44:39.620Z,12.10
2019-03-01T14:47:10.593Z,12.60
2019-03-01T14:49:41.803Z,13.33
2019-03-01T14:52:12.883Z,12.77
2019-03-01T14:54:45.128Z,11.83
2019-03-01T14:57:30.388Z,12.70
2019-03-01T15:00:28.575Z,12.97
2019-03-01T15:03:16.507Z,13.33
2019-03-01T15:05:48.429Z,16.07
2019-03-01T15:08:19.422Z,17.33
2019-03-01T15:10:50.718Z,18.27
2019-03-01T15:13:22.051Z,18.13
2019-03-01T15:15:53.344Z,16.50
2019-03-01T15:18:25.142Z,14.77
2019-03-01T15:21:01.297Z,14.17
2019-03-01T15:23:30.183Z,14.27
2019-03-01T15:26:01.463Z,13.80
2019-03-01T15:28:32.787Z,14.87
2019-03-01T15:31:03.735Z,14.97
2019-03-01T15:33:34.821Z,15.20
2019-03-01T15:36:05.947Z,16.10
2019-03-01T15:38:36.955Z,17.13
2019-03-01T15:41:07.931Z,16.73
2019-03-01T15:43:39.389Z,17.07
2019-03-01T15:46:11.536Z,17.27
2019-03-01T15:48:43.482Z,17.17
2019-03-01T15:51:15.600Z,17.13
2019-03-01T15:53:46.889Z,16.27
2019-03-01T15:56:18.203Z,16.63
2019-03-01T15:58:49.510Z,16.90
2019-03-01T16:01:20.752Z,16.07
2019-03-01T16:03:54.106Z,17.53
2019-03-01T16:06:24.816Z,16.13
2019-03-01T16:08:56.145Z,16.47
2019-03-01T16:11:27.478Z,16.97
2019-03-01T16:13:58.704Z,16.87
2019-03-01T16:16:29.635Z,17.30
2019-03-01T16:19:00.659Z,17.43
2019-03-01T16:21:31.921Z,17.13
2019-03-01T16:24:04.988Z,17.20
2019-03-01T16:26:37.242Z,17.33
2019-03-01T16:29:08.541Z,17.70
2019-03-01T16:31:39.972Z,16.83
2019-03-01T16:34:11.271Z,18.87
2019-03-01T16:36:45.398Z,17.67
2019-03-01T16:39:16.779Z,18.03
2019-03-01T16:41:47.684Z,16.50
2019-03-01T16:44:19.727Z,17.83
2019-03-01T16:46:51.057Z,17.57
2019-03-01T16:49:23.606Z,17.50
2019-03-01T16:51:55.126Z,17.10
2019-03-01T16:54:26.410Z,16.80
2019-03-01T16:56:57.328Z,17.13
2019-03-01T16:59:28.553Z,17.07
2019-03-01T17:02:06.192Z,17.70
2019-03-01T17:04:32.169Z,17.77
2019-03-01T17:07:04.493Z,17.17
2019-03-01T17:09:35.802Z,19.60
2019-03-01T17:12:07.030Z,18.90
2019-03-01T17:14:38.751Z,18.37
2019-03-01T17:17:10.706Z,21.07
2019-03-01T17:19:41.728Z,18.30
2019-03-01T17:22:13.129Z,20.30
2019-03-01T17:24:44.407Z,21.00
2019-03-01T17:27:15.654Z,21.63
2019-03-01T17:29:46.617Z,20.50
2019-03-01T17:32:17.941Z,20.67
2019-03-01T17:34:49.197Z,20.97
2019-03-01T17:37:20.275Z,20.40
2019-03-01T17:39:53.181Z,20.43
2019-03-01T17:42:24.352Z,20.87
2019-03-01T17:44:55.577Z,19.97
2019-03-01T17:47:26.721Z,20.23
2019-03-01T17:49:57.766Z,20.00
2019-03-01T17:52:30.543Z,18.03
2019-03-01T17:55:02.794Z,18.97
2019-03-01T17:57:34.178Z,18.90
2019-03-01T18:00:08.997Z,21.67
2019-03-01T18:02:40.453Z,20.83
2019-03-01T18:05:13.008Z,19.87
2019-03-01T18:07:44.213Z,27.67
2019-03-01T18:10:16.076Z,22.97
2019-03-01T18:12:46.954Z,24.03
2019-03-01T18:15:18.471Z,23.53
2019-03-01T18:17:49.742Z,25.13
2019-03-01T18:20:20.963Z,23.93
2019-03-01T18:22:52.199Z,23.47
2019-03-01T18:25:26.224Z,23.97
2019-03-01T18:27:56.571Z,24.30
2019-03-01T18:30:29.910Z,24.70
2019-03-01T18:33:00.578Z,25.77
2019-03-01T18:35:32.231Z,25.43
2019-03-01T18:38:04.079Z,24.60
2019-03-01T18:40:35.742Z,22.02
2019-03-01T18:43:09.729Z,22.15
2019-03-01T18:45:41.985Z,21.65
2019-03-01T18:48:13.359Z,22.32
2019-03-01T18:50:44.419Z,22.10
2019-03-01T18:53:15.570Z,21.87
2019-03-01T18:55:49.599Z,21.77
2019-03-01T18:58:20.067Z,22.35
2019-03-01T19:00:51.508Z,21.87
2019-03-01T19:03:22.878Z,22.13
2019-03-01T19:05:54.048Z,22.93
2019-03-01T19:08:26.093Z,21.87
2019-03-01T19:10:59.767Z,23.83
2019-03-01T19:13:30.185Z,24.87
2019-03-01T19:16:01.774Z,24.18
2019-03-01T19:18:33.030Z,24.50
2019-03-01T19:21:04.730Z,25.02
2019-03-01T19:23:37.584Z,24.35
2019-03-01T19:26:08.942Z,25.30
2019-03-01T19:28:40.676Z,24.10
2019-03-01T19:31:12.274Z,22.52
2019-03-01T19:33:43.638Z,23.30
2019-03-01T19:36:14.912Z,21.10
2019-03-01T19:38:46.508Z,23.12
2019-03-01T19:41:20.045Z,22.15
2019-03-01T19:43:57.399Z,21.33
2019-03-01T19:46:26.588Z,21.05
2019-03-01T19:48:58.092Z,20.85
2019-03-01T19:51:29.641Z,20.25
2019-03-01T19:54:02.108Z,19.98
2019-03-01T19:56:33.446Z,23.65
2019-03-01T19:59:04.966Z,20.27
2019-03-01T20:01:36.388Z,19.87
2019-03-01T20:04:08.057Z,19.90
2019-03-01T20:06:39.847Z,19.48
2019-03-01T20:09:13.221Z,19.07
2019-03-01T20:11:44.554Z,18.70
2019-03-01T20:14:16.920Z,19.85
2019-03-01T20:16:48.373Z,18.73
2019-03-01T20:19:20.870Z,18.37
2019-03-01T20:21:52.878Z,18.37
2019-03-01T20:24:24.502Z,17.35
2019-03-01T20:26:56.672Z,18.43
2019-03-01T20:29:27.963Z,17.87
2019-03-01T20:31:59.211Z,18.33
2019-03-01T20:34:31.278Z,18.80
2019-03-01T20:37:02.478Z,19.23
2019-03-01T20:39:33.767Z,19.97
2019-03-01T20:42:05.093Z,19.42
2019-03-01T20:44:36.260Z,21.50
2019-03-01T20:47:07.569Z,20.43
2019-03-01T20:49:39.425Z,20.32
2019-03-01T20:52:11.774Z,18.73
2019-03-01T20:54:43.408Z,17.35
2019-03-01T20:57:14.340Z,20.57
2019-03-01T20:59:46.848Z,21.73
2019-03-01T21:02:17.869Z,30.90
2019-03-01T21:04:53.324Z,30.77
2019-03-01T21:07:22.980Z,28.73
2019-03-01T21:09:54.609Z,27.70
2019-03-01T21:12:26.068Z,25.95
2019-03-01T21:14:58.692Z,27.13
2019-03-01T21:17:30.237Z,24.75
2019-03-01T21:20:01.623Z,24.63
2019-03-01T21:22:33.148Z,22.80
2019-03-01T21:25:05.056Z,22.73
2019-03-01T21:27:36.365Z,21.90
2019-03-01T21:30:11.337Z,22.42
2019-03-01T21:32:42.743Z,22.35
2019-03-01T21:35:16.679Z,20.80
2019-03-01T21:37:47.383Z,18.82
2019-03-01T21:40:19.895Z,18.45
2019-03-01T21:42:52.932Z,19.12
2019-03-01T21:45:24.433Z,21.85
2019-03-01T21:47:55.831Z,21.00
2019-03-01T21:50:27.491Z,19.77
2019-03-01T21:53:01.741Z,21.75
2019-03-01T21:55:32.095Z,23.35
2019-03-01T21:58:06.645Z,22.62
2019-03-01T22:00:37.043Z,20.97
2019-03-01T22:03:08.451Z,23.02
2019-03-01T22:05:39.950Z,23.07
2019-03-01T22:08:12.994Z,23.27
2019-03-01T22:10:44.690Z,25.43
2019-03-01T22:13:16.304Z,24.07
2019-03-01T22:15:47.655Z,24.37
2019-03-01T22:18:20.434Z,21.85
2019-03-01T22:20:52.352Z,22.75
2019-03-01T22:23:23.625Z,21.95
2019-03-01T22:25:55.635Z,21.07
2019-03-01T22:28:27.553Z,22.07
2019-03-01T22:31:00.229Z,21.35
2019-03-01T22:33:32.775Z,21.23
2019-03-01T22:36:04.394Z,22.35
2019-03-01T22:38:37.625Z,22.13
2019-03-01T22:41:08.988Z,21.48
2019-03-01T22:43:40.536Z,21.30
2019-03-01T22:46:11.860Z,20.70
2019-03-01T22:48:47.007Z,19.87
2019-03-01T22:51:17.949Z,20.30
2019-03-01T22:53:49.406Z,21.95
2019-03-01T22:56:22.519Z,21.00
2019-03-01T22:58:53.844Z,21.82
2019-03-01T23:01:36.357Z,21.17
2019-03-01T23:04:08.293Z,21.17
2019-03-01T23:06:39.653Z,20.88
2019-03-01T23:09:15.554Z,19.87
2019-03-01T23:11:47.142Z,20.95
2019-03-01T23:14:18.500Z,19.70
2019-03-01T23:16:50.661Z,20.17
2019-03-01T23:19:22.885Z,20.40
2019-03-01T23:21:54.577Z,20.82
2019-03-01T23:24:25.803Z,19.32
2019-03-01T23:26:57.791Z,19.62
2019-03-01T23:29:29.152Z,19.75
2019-03-01T23:32:00.493Z,19.75
2019-03-01T23:34:32.120Z,20.00
2019-03-01T23:37:03.638Z,20.17
2019-03-01T23:39:37.066Z,19.42
2019-03-01T23:42:08.651Z,20.70
2019-03-01T23:44:41.571Z,20.20
2019-03-01T23:47:14.172Z,19.30
2019-03-01T23:49:45.392Z,20.60
2019-03-01T23:52:19.584Z,20.72
2019-03-01T23:54:49.689Z,20.12
2019-03-01T23:57:21.451Z,22.65
2019-03-01T23:59:52.906Z,20.57
